Time;durP1;ratioP1;P1;durP2;ratioP2;P2;SDS_P1;SDS_P2;PMS_P1;PMS_P2;Temp;Humidity;BMP_temperature;BMP_pressure;BME280_temperature;BME280_humidity;BME280_pressure;Samples;Min_cycle;Max_cycle;Signal;HPM_P1;HPM_P2
2023/05/27 00:02:02;;;;;;;22.98;7.03;;;12.30;99.90;;;;;;5068471;28;20437;-72
2023/05/27 00:04:27;;;;;;;14.43;6.55;;;12.20;99.90;;;;;;5067630;28;20056;-72
2023/05/27 00:06:53;;;;;;;19.90;7.07;;;12.30;99.90;;;;;;5068643;28;20098;-72
2023/05/27 00:09:18;;;;;;;15.57;6.28;;;12.30;99.90;;;;;;5067517;28;20107;-72
2023/05/27 00:11:44;;;;;;;19.00;6.88;;;12.20;99.90;;;;;;5068179;28;20044;-72
2023/05/27 00:14:10;;;;;;;14.57;5.57;;;12.10;99.90;;;;;;5067431;28;20033;-71
2023/05/27 00:16:35;;;;;;;22.33;5.40;;;12.00;99.90;;;;;;5068191;28;20064;-71
2023/05/27 00:19:02;;;;;;;16.50;6.00;;;12.10;99.90;;;;;;5068224;28;20064;-72
2023/05/27 00:21:28;;;;;;;18.65;5.22;;;12.20;99.90;;;;;;5067495;28;20029;-72
2023/05/27 00:23:53;;;;;;;15.95;5.50;;;12.30;99.90;;;;;;5068174;28;20082;-72
2023/05/27 00:26:19;;;;;;;14.77;5.30;;;12.30;99.90;;;;;;5067599;28;20074;-72
2023/05/27 00:28:45;;;;;;;16.65;4.82;;;12.30;99.90;;;;;;5068660;28;20028;-71
2023/05/27 00:31:10;;;;;;;23.35;5.82;;;12.40;99.90;;;;;;5070822;28;20031;-72
2023/05/27 00:33:36;;;;;;;18.52;5.93;;;12.40;99.90;;;;;;5071579;28;20047;-72
2023/05/27 00:36:02;;;;;;;20.27;4.93;;;12.50;99.90;;;;;;5071712;28;20051;-72
2023/05/27 00:38:28;;;;;;;17.17;4.88;;;12.40;99.90;;;;;;5071019;28;20070;-72
2023/05/27 00:40:53;;;;;;;28.67;5.35;;;12.50;99.90;;;;;;5071438;28;20032;-72
2023/05/27 00:43:19;;;;;;;20.85;5.60;;;12.60;99.90;;;;;;5070828;28;20469;-72
2023/05/27 00:45:45;;;;;;;17.20;5.60;;;12.50;99.90;;;;;;5071536;28;20040;-71
2023/05/27 00:48:11;;;;;;;19.27;5.03;;;12.60;99.90;;;;;;5069434;28;20035;-73
2023/05/27 00:50:36;;;;;;;21.48;5.35;;;12.60;99.90;;;;;;5071535;28;20035;-71
2023/05/27 00:53:03;;;;;;;15.43;4.95;;;12.60;99.90;;;;;;5071427;28;20040;-72
2023/05/27 00:55:28;;;;;;;19.05;5.05;;;12.60;99.90;;;;;;5070557;28;20222;-72
2023/05/27 00:57:54;;;;;;;18.77;5.40;;;12.50;99.90;;;;;;5071317;28;20537;-71
2023/05/27 01:00:21;;;;;;;23.73;6.00;;;12.60;99.90;;;;;;5070417;28;20035;-72
2023/05/27 01:02:48;;;;;;;13.95;4.75;;;12.50;99.90;;;;;;5069667;28;20413;-71
2023/05/27 01:05:16;;;;;;;18.35;5.18;;;12.50;99.90;;;;;;5070459;28;20028;-72
2023/05/27 01:08:04;;;;;;;17.92;5.07;;;12.50;99.90;;;;;;5071231;28;20138;-72
2023/05/27 01:10:41;;;;;;;22.90;5.47;;;12.50;99.90;;;;;;5070339;28;20028;-72
2023/05/27 01:13:33;;;;;;;18.48;5.32;;;12.50;99.90;;;;;;5071108;28;20031;-73
2023/05/27 01:16:01;;;;;;;23.20;5.60;;;12.40;99.90;;;;;;5065584;28;20083;-72
2023/05/27 01:18:30;;;;;;;21.52;5.35;;;12.40;99.90;;;;;;5070168;28;20056;-73
2023/05/27 01:21:03;;;;;;;15.55;4.72;;;12.40;99.90;;;;;;5070920;28;20032;-72
2023/05/27 01:23:29;;;;;;;27.25;6.47;;;12.40;99.90;;;;;;5068815;28;20054;-72
2023/05/27 01:25:54;;;;;;;25.33;4.93;;;12.40;99.90;;;;;;5069478;28;20036;-72
2023/05/27 01:28:20;;;;;;;20.90;5.50;;;12.30;99.90;;;;;;5070026;28;20062;-72
2023/05/27 01:30:46;;;;;;;18.17;5.70;;;12.30;99.90;;;;;;5070785;28;20025;-72
2023/05/27 01:33:20;;;;;;;16.50;5.30;;;12.30;99.90;;;;;;5070162;28;20032;-74
2023/05/27 01:36:01;;;;;;;19.25;5.85;;;12.30;99.90;;;;;;5070596;28;20036;-73
2023/05/27 01:38:31;;;;;;;21.63;5.47;;;12.20;99.90;;;;;;5069827;28;20032;-73
2023/05/27 01:40:58;;;;;;;20.42;5.43;;;12.20;99.90;;;;;;5070485;28;20040;-72
2023/05/27 01:43:23;;;;;;;24.27;5.80;;;12.20;99.90;;;;;;5069767;28;20032;-72
2023/05/27 01:45:49;;;;;;;19.83;5.80;;;12.20;99.90;;;;;;5070441;28;20039;-72
2023/05/27 01:48:16;;;;;;;23.52;5.20;;;12.20;99.90;;;;;;5069616;28;20043;-72
2023/05/27 01:50:41;;;;;;;18.30;5.72;;;12.20;99.90;;;;;;5070348;28;20073;-72
2023/05/27 01:53:07;;;;;;;16.83;5.57;;;12.20;99.90;;;;;;5070118;28;20029;-72
2023/05/27 01:55:33;;;;;;;15.73;5.50;;;12.00;99.90;;;;;;5069485;28;20028;-72
2023/05/27 01:57:58;;;;;;;30.73;5.88;;;11.90;99.90;;;;;;5068797;28;20032;-72
2023/05/27 02:00:24;;;;;;;21.17;5.93;;;11.90;99.90;;;;;;5069202;28;20159;-72
2023/05/27 02:02:50;;;;;;;16.92;5.05;;;11.80;99.90;;;;;;5068384;28;20068;-72
2023/05/27 02:05:16;;;;;;;15.60;5.88;;;11.80;99.90;;;;;;5067871;28;20051;-73
2023/05/27 02:07:42;;;;;;;16.67;5.07;;;11.80;99.90;;;;;;5070108;28;20032;-72
2023/05/27 02:10:08;;;;;;;16.95;5.25;;;11.70;99.90;;;;;;5070010;28;20067;-72
2023/05/27 02:12:33;;;;;;;19.30;5.55;;;11.70;99.90;;;;;;5069106;28;20103;-72
2023/05/27 02:14:59;;;;;;;23.83;5.57;;;11.70;99.90;;;;;;5068427;28;20461;-72
2023/05/27 02:17:25;;;;;;;20.48;5.75;;;11.80;99.90;;;;;;5069071;28;20032;-72
2023/05/27 02:19:50;;;;;;;20.48;6.00;;;11.70;99.90;;;;;;5069853;28;20162;-72
2023/05/27 02:22:17;;;;;;;21.38;5.93;;;11.80;99.90;;;;;;5069235;28;20406;-73
2023/05/27 02:24:42;;;;;;;20.70;5.90;;;11.80;99.90;;;;;;5069719;28;20028;-72
2023/05/27 02:27:08;;;;;;;22.17;6.05;;;11.80;99.90;;;;;;5069638;28;20039;-72
2023/05/27 02:29:34;;;;;;;20.88;5.75;;;11.90;99.90;;;;;;5068577;28;20034;-72
2023/05/27 02:31:59;;;;;;;20.70;5.80;;;11.90;99.90;;;;;;5069342;28;20127;-72
2023/05/27 02:34:25;;;;;;;21.88;6.22;;;11.80;99.90;;;;;;5068704;28;20020;-72
2023/05/27 02:36:51;;;;;;;21.40;5.72;;;11.70;99.90;;;;;;5069573;28;20040;-72
2023/05/27 02:39:17;;;;;;;23.77;6.00;;;11.80;99.90;;;;;;5067303;28;20617;-74
2023/05/27 02:41:43;;;;;;;19.98;5.57;;;11.80;99.90;;;;;;5069384;28;20028;-72
2023/05/27 02:44:08;;;;;;;28.27;5.50;;;11.80;99.90;;;;;;5069375;28;20370;-72
2023/05/27 02:46:34;;;;;;;19.17;5.00;;;11.80;99.90;;;;;;5068518;28;20021;-72
2023/05/27 02:49:00;;;;;;;22.52;5.85;;;11.80;99.90;;;;;;5069309;28;20422;-73
2023/05/27 02:51:25;;;;;;;16.60;5.00;;;11.80;99.90;;;;;;5067928;28;20462;-73
2023/05/27 02:53:51;;;;;;;19.38;5.63;;;11.80;99.90;;;;;;5069166;28;20024;-72
2023/05/27 02:56:17;;;;;;;27.85;6.40;;;11.80;99.90;;;;;;5068565;28;20059;-75
2023/05/27 02:58:43;;;;;;;22.92;6.20;;;11.70;99.90;;;;;;5069174;28;20031;-72
2023/05/27 03:01:08;;;;;;;21.23;5.22;;;11.70;99.90;;;;;;5068820;28;20033;-73
2023/05/27 03:03:34;;;;;;;20.33;5.75;;;11.80;99.90;;;;;;5068285;28;20057;-72
2023/05/27 03:06:00;;;;;;;23.00;5.60;;;11.70;99.90;;;;;;5067586;28;20062;-72
2023/05/27 03:08:25;;;;;;;25.83;6.43;;;11.70;99.90;;;;;;5068067;28;20090;-72
2023/05/27 03:10:51;;;;;;;20.95;5.80;;;11.70;99.90;;;;;;5068853;28;20029;-72
2023/05/27 03:13:17;;;;;;;14.77;5.03;;;11.70;99.90;;;;;;5068416;28;20039;-74
2023/05/27 03:15:42;;;;;;;22.45;5.30;;;11.60;99.90;;;;;;5068398;28;20472;-72
2023/05/27 03:18:08;;;;;;;20.92;6.35;;;11.70;99.90;;;;;;5068816;28;20401;-72
2023/05/27 03:20:34;;;;;;;17.33;5.65;;;11.70;99.90;;;;;;5068044;28;20071;-72
2023/05/27 03:23:00;;;;;;;22.48;5.40;;;11.60;99.90;;;;;;5068796;28;20020;-73
2023/05/27 03:25:25;;;;;;;23.02;5.90;;;11.60;99.90;;;;;;5067843;28;20040;-72
2023/05/27 03:27:52;;;;;;;23.25;5.82;;;11.60;99.90;;;;;;5066964;28;20044;-72
2023/05/27 03:30:18;;;;;;;24.42;5.53;;;11.50;99.90;;;;;;5068313;28;20024;-74
2023/05/27 03:32:44;;;;;;;26.00;5.38;;;11.50;99.90;;;;;;5068378;28;20032;-73
2023/05/27 03:35:09;;;;;;;20.00;5.38;;;11.50;99.90;;;;;;5068570;28;20115;-72
2023/05/27 03:37:36;;;;;;;21.33;5.50;;;11.50;99.90;;;;;;5067752;28;20507;-72
2023/05/27 03:40:03;;;;;;;20.73;5.45;;;11.40;99.90;;;;;;5068367;28;20712;-73
2023/05/27 03:42:28;;;;;;;19.52;5.40;;;11.40;99.90;;;;;;5066296;28;20733;-72
2023/05/27 03:44:54;;;;;;;27.23;5.63;;;11.40;99.90;;;;;;5066985;28;20045;-72
2023/05/27 03:47:21;;;;;;;18.20;5.32;;;11.40;99.90;;;;;;5067932;28;20104;-74
2023/05/27 03:49:47;;;;;;;23.67;5.63;;;11.40;99.90;;;;;;5068418;28;20025;-72
2023/05/27 03:52:14;;;;;;;22.77;6.30;;;11.40;99.90;;;;;;5068554;28;20093;-72
2023/05/27 03:54:40;;;;;;;22.42;5.40;;;11.40;99.90;;;;;;5067567;28;20590;-72
2023/05/27 03:57:06;;;;;;;14.43;5.45;;;11.40;99.90;;;;;;5068456;28;20036;-72
2023/05/27 03:59:32;;;;;;;18.23;5.03;;;11.40;99.90;;;;;;5065829;28;20040;-73
2023/05/27 04:01:58;;;;;;;17.02;5.45;;;11.30;99.90;;;;;;5068251;28;20044;-72
2023/05/27 04:04:24;;;;;;;13.38;4.95;;;11.40;99.90;;;;;;5067828;28;20041;-73
2023/05/27 04:06:49;;;;;;;15.38;5.43;;;11.40;99.90;;;;;;5072395;28;20035;-72
2023/05/27 04:09:15;;;;;;;26.50;6.03;;;11.40;99.90;;;;;;5072317;28;20051;-72
2023/05/27 04:11:41;;;;;;;20.73;5.72;;;11.40;99.90;;;;;;5071393;28;20032;-72
2023/05/27 04:14:06;;;;;;;20.55;5.20;;;11.40;99.90;;;;;;5072449;28;20036;-73
2023/05/27 04:16:33;;;;;;;21.67;5.28;;;11.40;99.90;;;;;;5071327;28;20707;-72
2023/05/27 04:19:02;;;;;;;18.70;5.97;;;11.40;99.90;;;;;;5072145;28;20469;-72
2023/05/27 04:21:28;;;;;;;25.13;6.00;;;11.50;99.90;;;;;;5069942;28;20048;-72
2023/05/27 04:23:54;;;;;;;22.85;5.70;;;11.50;99.90;;;;;;5072126;28;20033;-73
2023/05/27 04:26:20;;;;;;;19.52;5.55;;;11.50;99.90;;;;;;5070225;28;20166;-74
2023/05/27 04:28:46;;;;;;;19.38;5.20;;;11.60;99.90;;;;;;5071556;28;20024;-72
2023/05/27 04:31:13;;;;;;;24.35;6.07;;;11.60;99.90;;;;;;5071983;28;20036;-72
2023/05/27 04:33:42;;;;;;;26.77;6.18;;;11.70;99.90;;;;;;5070887;28;20035;-73
2023/05/27 04:36:09;;;;;;;23.58;5.72;;;11.70;99.90;;;;;;5071775;28;20461;-72
2023/05/27 04:38:34;;;;;;;20.05;5.47;;;11.80;99.90;;;;;;5070970;28;20040;-72
2023/05/27 04:41:01;;;;;;;18.23;5.40;;;11.90;99.90;;;;;;5071667;28;20029;-72
2023/05/27 04:43:26;;;;;;;22.05;5.32;;;12.00;99.90;;;;;;5070900;28;20071;-72
2023/05/27 04:45:53;;;;;;;20.05;5.15;;;12.20;99.90;;;;;;5071573;28;20119;-72
2023/05/27 04:48:22;;;;;;;19.90;4.78;;;12.10;99.90;;;;;;5071877;28;20024;-73
2023/05/27 04:50:48;;;;;;;19.23;5.30;;;12.10;99.90;;;;;;5069959;28;20036;-72
2023/05/27 04:53:16;;;;;;;18.75;5.43;;;12.10;99.90;;;;;;5071574;28;20381;-72
2023/05/27 04:55:41;;;;;;;19.15;5.15;;;12.10;99.90;;;;;;5070653;28;20024;-72
2023/05/27 04:58:07;;;;;;;23.73;5.35;;;12.10;99.90;;;;;;5070069;28;20035;-73
2023/05/27 05:00:49;;;;;;;16.10;5.32;;;12.20;99.90;;;;;;5070561;28;20024;-73
2023/05/27 05:03:20;;;;;;;22.40;5.70;;;12.20;99.90;;;;;;5070933;28;20049;-72
2023/05/27 05:05:51;;;;;;;20.33;5.35;;;12.30;99.90;;;;;;5070665;28;20161;-72
2023/05/27 05:08:18;;;;;;;20.20;5.35;;;12.30;99.90;;;;;;5071256;28;20035;-72
2023/05/27 05:10:43;;;;;;;20.50;5.80;;;12.40;99.90;;;;;;5070376;28;20579;-73
2023/05/27 05:13:09;;;;;;;15.50;4.70;;;12.50;99.90;;;;;;5069699;28;20033;-72
2023/05/27 05:15:35;;;;;;;19.35;5.32;;;12.60;99.90;;;;;;5068204;28;20060;-73
2023/05/27 05:18:00;;;;;;;19.70;5.28;;;12.70;99.90;;;;;;5071087;28;20028;-72
2023/05/27 05:20:26;;;;;;;24.40;5.35;;;12.80;99.90;;;;;;5068917;28;20112;-74
2023/05/27 05:22:52;;;;;;;19.52;5.60;;;12.80;99.90;;;;;;5071263;28;20062;-73
2023/05/27 05:25:17;;;;;;;25.70;5.05;;;12.80;99.90;;;;;;5071005;28;20040;-72
2023/05/27 05:27:43;;;;;;;16.35;5.05;;;12.80;99.90;;;;;;5070056;28;20080;-73
2023/05/27 05:30:09;;;;;;;23.13;5.03;;;12.90;99.90;;;;;;5070664;28;20020;-73
2023/05/27 05:32:34;;;;;;;20.17;5.55;;;12.90;99.90;;;;;;5070020;28;20401;-73
2023/05/27 05:35:00;;;;;;;21.27;5.65;;;13.00;99.90;;;;;;5070907;28;20024;-72
2023/05/27 05:37:26;;;;;;;21.13;5.05;;;13.00;99.90;;;;;;5070322;28;20401;-75
2023/05/27 05:39:55;;;;;;;26.20;5.72;;;13.20;99.90;;;;;;5070745;28;20025;-73
2023/05/27 05:42:21;;;;;;;16.20;4.88;;;13.40;99.90;;;;;;5068888;28;20032;-72
2023/05/27 05:44:47;;;;;;;20.55;4.97;;;13.40;99.90;;;;;;5069726;28;20037;-72
2023/05/27 05:47:12;;;;;;;21.77;5.40;;;13.50;99.90;;;;;;5070375;28;20106;-73
2023/05/27 05:49:38;;;;;;;19.67;4.55;;;13.70;99.90;;;;;;5069647;28;20063;-73
2023/05/27 05:52:04;;;;;;;26.58;5.57;;;13.70;99.90;;;;;;5070305;28;20028;-73
2023/05/27 05:54:30;;;;;;;19.92;5.05;;;13.80;99.90;;;;;;5069393;28;20033;-73
2023/05/27 05:56:55;;;;;;;18.27;5.22;;;13.70;99.90;;;;;;5069960;28;20078;-73
2023/05/27 05:59:21;;;;;;;19.23;5.20;;;13.80;99.90;;;;;;5070027;28;20078;-72
2023/05/27 06:01:47;;;;;;;25.80;4.55;;;13.90;99.90;;;;;;5069340;28;20033;-73
2023/05/27 06:04:12;;;;;;;17.77;4.78;;;14.00;99.90;;;;;;5068830;28;20029;-74
2023/05/27 06:06:39;;;;;;;20.35;5.10;;;14.10;99.90;;;;;;5069031;28;20029;-73
2023/05/27 06:09:05;;;;;;;14.90;4.55;;;14.20;99.90;;;;;;5070000;28;20035;-73
2023/05/27 06:11:31;;;;;;;17.40;4.57;;;14.30;99.90;;;;;;5068971;28;20384;-73
2023/05/27 06:13:57;;;;;;;21.80;4.60;;;14.30;99.90;;;;;;5069593;28;20456;-73
2023/05/27 06:16:22;;;;;;;17.77;4.60;;;14.50;99.90;;;;;;5069871;28;20506;-73
2023/05/27 06:18:48;;;;;;;19.42;4.93;;;14.70;99.90;;;;;;5068772;28;20031;-73
2023/05/27 06:21:14;;;;;;;21.67;5.30;;;14.80;99.90;;;;;;5069620;28;20090;-73
2023/05/27 06:23:39;;;;;;;19.77;5.20;;;14.90;99.90;;;;;;5068853;28;20066;-74
2023/05/27 06:26:05;;;;;;;17.45;4.65;;;15.00;99.90;;;;;;5069280;28;20056;-73
2023/05/27 06:28:31;;;;;;;19.63;5.43;;;14.90;99.90;;;;;;5068859;28;20035;-73
2023/05/27 06:30:57;;;;;;;20.95;5.13;;;14.90;99.90;;;;;;5069555;28;20535;-73
2023/05/27 06:33:22;;;;;;;23.20;5.43;;;15.00;99.90;;;;;;5069544;28;20032;-73
2023/05/27 06:35:48;;;;;;;16.30;4.93;;;14.90;99.90;;;;;;5068628;28;20074;-73
2023/05/27 06:38:14;;;;;;;18.08;5.43;;;15.00;99.90;;;;;;5069439;28;20040;-73
2023/05/27 06:40:39;;;;;;;22.05;5.20;;;15.20;99.90;;;;;;5068580;28;20377;-73
2023/05/27 06:43:06;;;;;;;18.80;5.18;;;15.10;99.90;;;;;;5069607;28;20126;-73
2023/05/27 06:45:32;;;;;;;16.08;4.82;;;15.20;99.90;;;;;;5068489;28;20190;-74
2023/05/27 06:47:58;;;;;;;18.52;5.55;;;15.30;99.90;;;;;;5067878;28;20028;-73
2023/05/27 06:50:23;;;;;;;17.88;4.70;;;15.30;99.90;;;;;;5069481;28;20032;-73
2023/05/27 06:52:49;;;;;;;24.35;5.57;;;15.50;99.90;;;;;;5068363;28;20031;-73
2023/05/27 06:55:15;;;;;;;19.90;5.13;;;15.70;99.90;;;;;;5067620;28;20089;-73
2023/05/27 06:57:40;;;;;;;18.95;4.78;;;15.80;99.90;;;;;;5068314;28;20037;-73
2023/05/27 07:00:08;;;;;;;21.38;4.75;;;15.90;99.90;;;;;;5069120;28;20029;-73
2023/05/27 07:02:34;;;;;;;21.05;5.18;;;16.10;99.90;;;;;;5067828;28;20106;-73
2023/05/27 07:05:00;;;;;;;17.23;5.03;;;16.10;99.90;;;;;;5069088;28;20028;-73
2023/05/27 07:07:25;;;;;;;16.60;5.10;;;16.30;99.90;;;;;;5069013;28;20039;-73
2023/05/27 07:09:51;;;;;;;26.45;5.40;;;16.50;99.90;;;;;;5066650;28;20030;-73
2023/05/27 07:12:18;;;;;;;17.77;4.78;;;16.30;99.90;;;;;;5068624;28;20477;-73
2023/05/27 07:14:43;;;;;;;15.60;5.47;;;16.30;99.90;;;;;;5068028;28;20049;-73
2023/05/27 07:17:09;;;;;;;15.13;4.47;;;16.40;99.90;;;;;;5068774;28;20032;-73
2023/05/27 07:19:35;;;;;;;22.42;4.72;;;16.40;99.90;;;;;;5068094;28;20465;-73
2023/05/27 07:22:00;;;;;;;17.20;5.15;;;16.40;99.90;;;;;;5068704;28;20538;-73
2023/05/27 07:24:26;;;;;;;23.92;5.15;;;16.50;99.90;;;;;;5068849;28;20028;-73
2023/05/27 07:26:52;;;;;;;17.35;5.28;;;16.60;99.90;;;;;;5067991;28;20016;-73
2023/05/27 07:29:18;;;;;;;12.82;4.72;;;16.80;99.90;;;;;;5067289;28;20040;-72
2023/05/27 07:31:45;;;;;;;17.90;4.70;;;17.00;99.90;;;;;;5067797;28;20435;-73
2023/05/27 07:34:10;;;;;;;17.90;5.20;;;17.20;99.90;;;;;;5068275;28;20020;-73
2023/05/27 07:36:36;;;;;;;22.73;5.15;;;17.40;99.90;;;;;;5067895;28;20070;-73
2023/05/27 07:39:02;;;;;;;15.60;4.95;;;17.50;99.90;;;;;;5068255;28;20107;-73
2023/05/27 07:41:29;;;;;;;20.50;5.60;;;17.50;99.90;;;;;;5068680;28;20039;-73
2023/05/27 07:43:55;;;;;;;22.92;5.95;;;17.60;99.90;;;;;;5067618;28;20942;-72
2023/05/27 07:46:21;;;;;;;20.45;5.63;;;17.80;99.90;;;;;;5068615;28;20028;-73
2023/05/27 07:48:47;;;;;;;18.27;5.45;;;17.90;99.90;;;;;;5067537;28;20090;-73
2023/05/27 07:51:13;;;;;;;16.05;5.03;;;18.10;99.90;;;;;;5067133;28;20485;-73
2023/05/27 07:53:39;;;;;;;18.85;5.53;;;18.10;99.90;;;;;;5066127;28;20476;-73
2023/05/27 07:56:05;;;;;;;20.45;5.75;;;17.80;99.90;;;;;;5068255;28;20245;-73
2023/05/27 07:58:31;;;;;;;20.92;5.75;;;18.00;99.90;;;;;;5068173;28;20089;-73
2023/05/27 08:00:56;;;;;;;18.27;5.32;;;18.10;99.90;;;;;;5067797;28;20781;-72
2023/05/27 08:03:22;;;;;;;18.23;5.47;;;18.30;99.90;;;;;;5068293;28;20049;-73
2023/05/27 08:05:48;;;;;;;18.48;5.22;;;18.20;99.90;;;;;;5067631;28;20769;-72
2023/05/27 08:08:13;;;;;;;14.77;5.50;;;18.20;99.90;;;;;;5068084;28;20556;-73
2023/05/27 08:10:39;;;;;;;25.38;5.55;;;18.40;99.90;;;;;;5067298;28;20028;-72
2023/05/27 08:13:05;;;;;;;17.45;5.47;;;18.50;99.90;;;;;;5068301;28;20040;-73
2023/05/27 08:15:31;;;;;;;22.17;5.38;;;18.60;99.90;;;;;;5068300;28;20081;-71
2023/05/27 08:17:57;;;;;;;16.42;5.65;;;18.50;99.90;;;;;;5067581;28;20024;-73
2023/05/27 08:20:23;;;;;;;22.45;6.38;;;18.30;99.90;;;;;;5068312;28;20078;-72
2023/05/27 08:22:49;;;;;;;17.88;5.25;;;18.60;99.90;;;;;;5067228;28;20385;-73
2023/05/27 08:25:15;;;;;;;20.95;5.80;;;19.00;99.90;;;;;;5068143;28;20372;-72
2023/05/27 08:27:50;;;;;;;16.90;5.75;;;19.10;99.90;;;;;;5067384;28;20024;-73
2023/05/27 08:30:17;;;;;;;13.70;4.80;;;19.00;99.90;;;;;;5068186;28;20024;-73
2023/05/27 08:32:43;;;;;;;14.75;5.22;;;19.30;99.90;;;;;;5067222;28;20033;-73
2023/05/27 08:35:10;;;;;;;17.45;6.18;;;19.60;99.90;;;;;;5068026;28;20032;-73
2023/05/27 08:37:36;;;;;;;17.38;6.38;;;19.80;99.90;;;;;;5067723;28;20060;-73
2023/05/27 08:40:05;;;;;;;17.52;6.05;;;19.80;99.90;;;;;;5066326;28;20106;-73
2023/05/27 08:42:31;;;;;;;17.00;5.70;;;19.90;99.90;;;;;;5067759;28;20021;-72
2023/05/27 08:44:57;;;;;;;19.65;5.32;;;19.80;99.10;;;;;;5065645;28;20029;-72
2023/05/27 08:47:23;;;;;;;13.50;5.38;;;19.90;98.90;;;;;;5066520;28;20434;-73
2023/05/27 08:49:49;;;;;;;16.67;5.85;;;20.00;98.80;;;;;;5067886;28;20031;-72
2023/05/27 08:52:20;;;;;;;21.30;6.03;;;20.20;99.90;;;;;;5071240;28;20619;-73
2023/05/27 08:54:47;;;;;;;17.27;5.68;;;20.00;98.10;;;;;;5069295;28;20526;-70
2023/05/27 08:57:15;;;;;;;18.70;5.57;;;20.10;98.30;;;;;;5071466;28;20047;-72
2023/05/27 08:59:42;;;;;;;15.18;5.60;;;20.10;97.50;;;;;;5070974;28;20074;-72
2023/05/27 09:02:11;;;;;;;21.42;6.03;;;20.00;97.40;;;;;;5071166;28;20048;-73
2023/05/27 09:04:39;;;;;;;25.33;6.05;;;20.00;97.50;;;;;;5071037;28;20042;-73
2023/05/27 09:07:05;;;;;;;14.60;5.20;;;20.00;97.30;;;;;;5071175;28;20089;-73
2023/05/27 09:09:31;;;;;;;19.10;5.38;;;20.20;97.20;;;;;;5071101;28;20116;-72
2023/05/27 09:12:02;;;;;;;19.42;5.60;;;20.10;96.90;;;;;;5068641;28;20112;-72
2023/05/27 09:14:29;;;;;;;13.93;5.43;;;20.10;96.30;;;;;;5069767;28;20721;-72
2023/05/27 09:16:55;;;;;;;19.73;5.65;;;20.20;97.20;;;;;;5070530;28;20029;-72
2023/05/27 09:19:21;;;;;;;14.18;5.20;;;20.30;96.80;;;;;;5070970;28;20109;-73
2023/05/27 09:21:52;;;;;;;19.77;5.63;;;20.70;95.90;;;;;;5070680;28;20489;-71
2023/05/27 09:24:18;;;;;;;18.45;5.95;;;20.70;95.30;;;;;;5071141;28;20063;-72
2023/05/27 09:26:44;;;;;;;21.63;5.85;;;20.80;95.20;;;;;;5070276;28;20385;-72
2023/05/27 09:29:10;;;;;;;16.88;5.90;;;20.90;95.00;;;;;;5070721;28;20027;-73
2023/05/27 09:31:42;;;;;;;17.35;5.88;;;20.70;94.80;;;;;;5070973;28;20449;-72
2023/05/27 09:34:16;;;;;;;21.85;6.30;;;20.80;95.20;;;;;;5070711;28;20032;-73
2023/05/27 09:36:47;;;;;;;19.05;5.47;;;21.10;96.10;;;;;;5068713;28;20106;-74
2023/05/27 09:39:18;;;;;;;22.88;5.68;;;21.30;94.50;;;;;;5070804;28;20021;-72
2023/05/27 09:41:49;;;;;;;19.23;5.80;;;21.20;92.50;;;;;;5069673;28;20036;-73
2023/05/27 09:44:15;;;;;;;18.92;5.53;;;21.20;95.40;;;;;;5071000;28;20078;-73
2023/05/27 09:46:48;;;;;;;18.85;6.15;;;21.20;93.80;;;;;;5069864;28;20492;-74
2023/05/27 09:49:15;;;;;;;16.65;5.80;;;21.30;94.40;;;;;;5070677;28;20029;-72
2023/05/27 09:51:46;;;;;;;16.92;6.38;;;21.60;93.60;;;;;;5068787;28;20369;-73
2023/05/27 09:54:20;;;;;;;16.08;5.85;;;21.80;94.00;;;;;;5069074;28;20094;-70
2023/05/27 09:56:46;;;;;;;14.38;5.53;;;21.90;91.70;;;;;;5069805;28;20078;-74
2023/05/27 09:59:12;;;;;;;21.35;5.90;;;21.70;93.20;;;;;;5070300;28;20036;-73
2023/05/27 10:01:40;;;;;;;16.15;7.18;;;22.10;92.40;;;;;;5069201;28;20090;-72
2023/05/27 10:04:06;;;;;;;14.02;5.68;;;22.10;92.10;;;;;;5068605;28;20024;-73
2023/05/27 10:06:33;;;;;;;15.27;6.28;;;22.00;91.60;;;;;;5070273;28;20029;-73
2023/05/27 10:09:01;;;;;;;20.25;7.30;;;22.00;89.80;;;;;;5069210;28;20790;-72
2023/05/27 10:11:38;;;;;;;17.25;6.03;;;21.60;91.20;;;;;;5068475;28;20315;-73
2023/05/27 10:14:05;;;;;;;15.18;5.65;;;22.00;92.70;;;;;;5067969;28;20036;-71
2023/05/27 10:16:31;;;;;;;19.48;6.05;;;22.20;90.70;;;;;;5070131;28;20033;-72
2023/05/27 10:18:58;;;;;;;18.95;6.15;;;21.90;87.30;;;;;;5069291;28;20031;-72
2023/05/27 10:21:28;;;;;;;17.00;6.15;;;21.80;88.60;;;;;;5069942;28;20035;-73
2023/05/27 10:24:00;;;;;;;20.27;6.00;;;22.00;89.60;;;;;;5069124;28;20033;-72
2023/05/27 10:26:41;;;;;;;16.20;6.00;;;22.20;87.70;;;;;;5069919;28;20271;-72
2023/05/27 10:29:15;;;;;;;22.15;6.47;;;22.10;88.00;;;;;;5069416;28;20025;-72
2023/05/27 10:31:51;;;;;;;14.55;5.93;;;22.30;89.40;;;;;;5068173;28;20043;-74
2023/05/27 10:34:18;;;;;;;18.55;5.80;;;22.60;87.10;;;;;;5068149;28;20431;-72
2023/05/27 10:36:57;;;;;;;18.30;6.18;;;22.60;87.00;;;;;;5069271;28;20025;-73
2023/05/27 10:39:23;;;;;;;15.15;6.10;;;22.70;88.00;;;;;;5069946;28;20052;-72
2023/05/27 10:41:50;;;;;;;24.48;6.18;;;22.90;87.10;;;;;;5068872;28;20063;-70
2023/05/27 10:44:34;;;;;;;14.23;5.50;;;22.60;83.10;;;;;;5069437;28;20036;-70
2023/05/27 10:47:01;;;;;;;13.93;5.53;;;22.20;83.80;;;;;;5068780;28;20069;-72
2023/05/27 10:49:35;;;;;;;16.38;5.93;;;22.30;86.50;;;;;;5069135;28;20477;-71
2023/05/27 10:52:15;;;;;;;15.68;5.68;;;22.80;84.00;;;;;;5067200;28;20111;-73
2023/05/27 10:54:41;;;;;;;17.13;5.20;;;22.70;85.20;;;;;;5069399;28;20032;-72
2023/05/27 10:57:07;;;;;;;21.70;6.70;;;22.90;83.50;;;;;;5068640;28;20062;-71
2023/05/27 10:59:43;;;;;;;14.20;6.20;;;22.80;80.00;;;;;;5069279;28;20024;-72
2023/05/27 11:02:08;;;;;;;11.65;5.78;;;22.90;82.70;;;;;;5067022;28;20176;-71
2023/05/27 11:04:35;;;;;;;14.50;6.60;;;23.00;77.10;;;;;;5069211;28;20107;-70
2023/05/27 11:07:01;;;;;;;23.92;7.15;;;22.90;80.70;;;;;;5068278;28;20078;-72
2023/05/27 11:09:27;;;;;;;19.70;6.30;;;22.90;80.10;;;;;;5069331;28;20122;-72
2023/05/27 11:11:55;;;;;;;14.10;6.10;;;23.10;83.10;;;;;;5068118;28;20033;-69
2023/05/27 11:14:21;;;;;;;13.43;6.35;;;23.40;78.30;;;;;;5068588;28;20032;-72
2023/05/27 11:16:51;;;;;;;17.88;7.18;;;23.00;77.90;;;;;;5068550;28;20039;-73
2023/05/27 11:19:17;;;;;;;;;;;23.00;79.00;;;;;;5069382;28;20036;-71
2023/05/27 11:21:47;;;;;;;16.73;5.65;;;23.30;79.60;;;;;;5067561;28;20018;-73
2023/05/27 11:24:21;;;;;;;12.45;5.55;;;23.40;77.90;;;;;;5068834;28;20040;-72
2023/05/27 11:26:47;;;;;;;17.02;5.60;;;23.50;77.50;;;;;;5068396;28;20552;-74
2023/05/27 11:29:14;;;;;;;14.80;5.10;;;23.50;76.30;;;;;;5068855;28;20025;-72
2023/05/27 11:31:41;;;;;;;19.13;5.22;;;23.20;77.20;;;;;;5068838;28;20056;-73
2023/05/27 11:34:23;;;;;;;13.05;5.68;;;23.40;79.50;;;;;;5066286;28;20103;-72
2023/05/27 11:36:49;;;;;;;19.83;6.72;;;24.10;79.20;;;;;;5067888;28;20037;-74
2023/05/27 11:39:19;;;;;;;12.38;5.50;;;24.40;75.00;;;;;;5068682;28;20028;-72
2023/05/27 11:41:53;;;;;;;20.08;5.38;;;24.60;73.20;;;;;;5068338;28;20036;-74
2023/05/27 11:44:20;;;;;;;16.67;5.03;;;24.60;71.30;;;;;;5068656;28;20103;-71
2023/05/27 11:46:47;;;;;;;13.57;5.13;;;24.20;71.70;;;;;;5066957;28;20683;-74
2023/05/27 11:49:15;;;;;;;11.75;5.05;;;24.10;70.30;;;;;;5068108;28;20094;-71
2023/05/27 11:51:43;;;;;;;15.77;5.05;;;24.00;71.10;;;;;;5068485;28;20661;-73
2023/05/27 11:54:24;;;;;;;16.25;5.20;;;24.20;69.90;;;;;;5067682;28;20944;-72
2023/05/27 11:56:50;;;;;;;;;;;24.20;69.10;;;;;;5068053;28;20465;-74
2023/05/27 11:59:20;;;;;;;12.93;4.63;;;24.30;72.00;;;;;;5068487;28;20655;-72
2023/05/27 12:01:46;;;;;;;9.88;4.28;;;24.00;65.30;;;;;;5068182;28;20083;-73
2023/05/27 12:04:12;;;;;;;10.90;4.40;;;23.80;67.80;;;;;;5067970;28;20571;-71
2023/05/27 12:06:38;;;;;;;11.32;4.65;;;24.20;67.20;;;;;;5068732;28;20043;-72
2023/05/27 12:09:05;;;;;;;13.93;4.85;;;24.00;68.20;;;;;;5067323;28;20814;-73
2023/05/27 12:11:31;;;;;;;23.10;4.43;;;24.00;67.60;;;;;;5066687;28;20032;-73
2023/05/27 12:13:58;;;;;;;10.35;3.92;;;23.80;62.20;;;;;;5067450;28;20032;-72
2023/05/27 12:16:23;;;;;;;9.05;3.90;;;23.80;61.20;;;;;;5068288;28;20087;-72
2023/05/27 12:18:49;;;;;;;10.77;4.07;;;23.80;61.30;;;;;;5067885;28;20064;-73
2023/05/27 12:21:16;;;;;;;19.25;4.20;;;24.00;61.60;;;;;;5068338;28;20028;-72
2023/05/27 12:23:41;;;;;;;10.93;3.85;;;24.00;59.00;;;;;;5068314;28;20025;-72
2023/05/27 12:26:07;;;;;;;11.45;4.30;;;24.00;60.40;;;;;;5070217;28;20240;-72
2023/05/27 12:28:33;;;;;;;30.42;5.13;;;24.20;57.30;;;;;;5070763;28;20397;-72
2023/05/27 12:30:58;;;;;;;13.93;4.22;;;24.30;57.80;;;;;;5071214;28;20033;-72
2023/05/27 12:33:24;;;;;;;9.45;3.65;;;24.20;58.00;;;;;;5072066;28;20032;-73
2023/05/27 12:35:51;;;;;;;18.08;4.60;;;24.00;61.00;;;;;;5070222;28;20362;-74
2023/05/27 12:38:16;;;;;;;13.13;4.32;;;24.30;60.80;;;;;;5071456;28;20485;-72